Kezdőlap
METAR-TAF:

METAR-TAF

Repülőterek :

Pöstyén, Szlovákia

földrajzi szélesség: 48-37-30N, földrajzi hosszúság: 017-49-43E, magasság: 163 m

Jelenlegi meteorológiai megfigyelések

A jelentés 19 perccel ezelõtt készült, 02:30 UTC
Északkeleti szél 4 kt
Hőmérséklet 20°C
Páratartalom 73%
Légköri nyomás 1016 hPa
Látótávolság 10 km, vagy több

METAR: LZPP 210230Z AUTO 04004KT 9999 NCD 20/15 Q1016

Idő: 04:49 (02:49 UTC)

Előrejelzés

A jelentés 9 órával és 49 perccel ezelõtt készült, 17:00 UTC
Az előrejelzés 20-én 18 óra UTC és 21-én 03 óra UTC között érvényes
Dél-délnyugati szél 4 kt
Látótávolság 10 km, vagy több
felhőtlen 1500 m magasságban, és nincs gomolyfelhõ

TAF: LZPP 201700Z 2018/2103 21004KT CAVOK

Meteorológiai megfigyelések és előrejelzések több, mint 4000 repülőtéren (METAR és TAF jelentéseket).

A térképen piros és sárga pontok jelzik az elérhető meteorológiai állomásokat.

Mozgassa az egeret a pont fölött, hogy megjelenjen az állomás neve.

Azután kattintson az időjárási megfigyelések és előrejelzések megtekintéséhez.

A térkép megváltoztatása: kattintson a fekete keresztel jelölt zöld gombra ráközelítéshez, a vonallal jelölt zöld gombra távolításhoz, vagy a zöld nyilakra a szomszédos térképek eléréséhez.


METAR-TAF: